createdAt,value
2022-10-05T00:00:14.857Z,13.96
2022-10-05T00:01:14.816Z,14.03
2022-10-05T00:02:14.964Z,13.93
2022-10-05T00:03:14.791Z,13.94
2022-10-05T00:04:14.845Z,13.97
2022-10-05T00:05:14.826Z,13.83
2022-10-05T00:06:14.762Z,13.88
2022-10-05T00:07:14.752Z,13.93
2022-10-05T00:08:14.764Z,13.90
2022-10-05T00:09:14.728Z,13.91
2022-10-05T00:10:14.750Z,13.80
2022-10-05T00:11:14.710Z,13.93
2022-10-05T00:12:14.717Z,13.82
2022-10-05T00:13:14.713Z,13.85
2022-10-05T00:14:14.676Z,13.88
2022-10-05T00:15:14.693Z,13.86
2022-10-05T00:16:14.693Z,13.78
2022-10-05T00:17:14.647Z,13.85
2022-10-05T00:18:14.660Z,13.86
2022-10-05T00:19:14.622Z,13.78
2022-10-05T00:20:14.612Z,13.86
2022-10-05T00:21:14.626Z,13.85
2022-10-05T00:22:14.594Z,13.83
2022-10-05T00:23:14.603Z,13.80
2022-10-05T00:24:14.570Z,13.80
2022-10-05T00:25:14.556Z,13.85
2022-10-05T00:26:14.574Z,13.79
2022-10-05T00:27:14.543Z,13.82
2022-10-05T00:28:14.641Z,13.71
2022-10-05T00:29:14.513Z,13.72
2022-10-05T00:30:14.506Z,13.73
2022-10-05T00:31:14.577Z,13.76
2022-10-05T00:32:14.488Z,13.79
2022-10-05T00:33:14.472Z,13.78
2022-10-05T00:34:14.468Z,13.75
2022-10-05T00:35:14.452Z,13.63
2022-10-05T00:36:14.436Z,13.78
2022-10-05T00:37:14.445Z,13.78
2022-10-05T00:38:14.419Z,13.75
2022-10-05T00:39:14.407Z,13.65
2022-10-05T00:40:14.399Z,13.73
2022-10-05T00:41:14.406Z,13.72
2022-10-05T00:42:14.393Z,13.68
2022-10-05T00:43:14.361Z,13.72
2022-10-05T00:44:14.370Z,13.65
2022-10-05T00:45:14.337Z,13.71
2022-10-05T00:46:14.420Z,13.68
2022-10-05T00:47:14.317Z,13.63
2022-10-05T00:48:14.310Z,13.64
2022-10-05T00:49:14.299Z,13.64
2022-10-05T00:50:14.288Z,13.64
2022-10-05T00:51:14.289Z,13.61
2022-10-05T00:52:14.264Z,13.63
2022-10-05T00:53:14.273Z,13.67
2022-10-05T00:54:18.175Z,13.54
2022-10-05T00:55:14.232Z,13.61
2022-10-05T00:56:14.218Z,13.60
2022-10-05T00:57:14.205Z,13.53
2022-10-05T00:58:14.221Z,13.58
2022-10-05T00:59:14.187Z,13.54
2022-10-05T01:00:14.195Z,13.57
2022-10-05T01:01:14.228Z,13.54
2022-10-05T01:02:14.264Z,13.54
2022-10-05T01:03:14.168Z,13.51
2022-10-05T01:04:14.132Z,13.54
2022-10-05T01:05:14.122Z,13.51
2022-10-05T01:06:14.112Z,13.55
2022-10-05T01:07:14.100Z,13.51
2022-10-05T01:08:14.117Z,13.47
2022-10-05T01:09:14.084Z,13.51
2022-10-05T01:10:14.071Z,13.51
2022-10-05T01:11:14.056Z,13.49
2022-10-05T01:12:14.047Z,13.45
2022-10-05T01:13:14.064Z,13.51
2022-10-05T01:14:14.036Z,13.45
2022-10-05T01:15:14.014Z,13.45
2022-10-05T01:16:14.174Z,13.47
2022-10-05T01:17:13.989Z,13.45
2022-10-05T01:18:14.015Z,13.45
2022-10-05T01:19:13.968Z,13.43
2022-10-05T01:20:13.967Z,13.39
2022-10-05T01:21:13.958Z,13.43
2022-10-05T01:22:13.939Z,13.42
2022-10-05T01:23:13.954Z,13.39
2022-10-05T01:24:13.919Z,13.39
2022-10-05T01:25:13.916Z,13.40
2022-10-05T01:26:13.896Z,13.43
2022-10-05T01:27:13.894Z,13.39
2022-10-05T01:28:14.024Z,13.45
2022-10-05T01:29:13.876Z,13.39
2022-10-05T01:30:13.856Z,13.39
2022-10-05T01:31:13.902Z,13.40
2022-10-05T01:32:13.851Z,13.35
2022-10-05T01:33:13.836Z,13.43
2022-10-05T01:34:13.809Z,13.38
2022-10-05T01:35:13.814Z,13.30
2022-10-05T01:36:13.787Z,13.40
2022-10-05T01:37:13.800Z,13.29
2022-10-05T01:38:13.769Z,13.42
2022-10-05T01:39:13.755Z,13.38
2022-10-05T01:40:13.744Z,13.42
2022-10-05T01:41:13.728Z,13.39
2022-10-05T01:42:13.750Z,13.38
2022-10-05T01:43:13.707Z,13.32
2022-10-05T01:44:13.729Z,13.35
2022-10-05T01:45:13.693Z,13.40
2022-10-05T01:46:13.728Z,13.39
2022-10-05T01:47:13.669Z,13.43
2022-10-05T01:48:13.795Z,13.38
2022-10-05T01:49:13.667Z,13.26
2022-10-05T01:50:13.640Z,13.30
2022-10-05T01:51:13.623Z,13.29
2022-10-05T01:52:13.610Z,13.30
2022-10-05T01:53:13.619Z,13.26
2022-10-05T01:54:13.591Z,13.26
2022-10-05T01:55:13.596Z,13.21
2022-10-05T01:56:13.573Z,13.23
2022-10-05T01:57:13.558Z,13.21
2022-10-05T01:58:13.546Z,13.32
2022-10-05T01:59:13.536Z,13.23
2022-10-05T02:00:13.546Z,13.29
2022-10-05T02:01:13.556Z,13.30
2022-10-05T02:02:13.553Z,13.16
2022-10-05T02:03:13.496Z,13.20
2022-10-05T02:04:29.609Z,13.29
2022-10-05T02:05:14.486Z,13.19
2022-10-05T02:06:13.462Z,13.14
2022-10-05T02:07:13.451Z,13.19
2022-10-05T02:08:13.437Z,13.20
2022-10-05T02:09:13.427Z,13.14
2022-10-05T02:10:13.438Z,13.20
2022-10-05T02:11:13.407Z,13.29
2022-10-05T02:12:13.394Z,13.32
2022-10-05T02:13:13.379Z,13.19
2022-10-05T02:14:13.378Z,13.16
2022-10-05T02:15:13.391Z,13.17
2022-10-05T02:16:13.446Z,13.09
2022-10-05T02:17:13.342Z,13.24
2022-10-05T02:18:13.329Z,13.14
2022-10-05T02:19:13.315Z,13.06
2022-10-05T02:20:13.353Z,13.11
2022-10-05T02:21:13.290Z,13.08
2022-10-05T02:22:13.288Z,13.11
2022-10-05T02:23:13.274Z,13.04
2022-10-05T02:24:13.267Z,13.08
2022-10-05T02:25:13.274Z,13.09
2022-10-05T02:26:13.244Z,13.20
2022-10-05T02:27:13.225Z,13.08
2022-10-05T02:28:13.285Z,13.08
2022-10-05T02:29:13.207Z,13.13
2022-10-05T02:30:16.567Z,13.09
2022-10-05T02:31:13.243Z,13.11
2022-10-05T02:32:13.175Z,13.13
2022-10-05T02:33:13.164Z,13.05
2022-10-05T02:34:13.156Z,13.06
2022-10-05T02:35:13.146Z,13.04
2022-10-05T02:36:13.177Z,12.98
2022-10-05T02:37:13.124Z,13.04
2022-10-05T02:38:13.114Z,13.04
2022-10-05T02:39:13.099Z,13.02
2022-10-05T02:40:13.089Z,13.02
2022-10-05T02:41:13.078Z,13.01
2022-10-05T02:42:13.092Z,12.96
2022-10-05T02:43:13.053Z,12.96
2022-10-05T02:44:13.052Z,12.98
2022-10-05T02:45:13.053Z,12.96
2022-10-05T02:46:13.076Z,12.96
2022-10-05T02:47:13.043Z,12.95
2022-10-05T02:48:13.028Z,12.91
2022-10-05T02:49:12.992Z,12.98
2022-10-05T02:50:12.986Z,12.95
2022-10-05T02:51:12.968Z,12.95
2022-10-05T02:52:13.050Z,12.95
2022-10-05T02:53:12.947Z,12.98
2022-10-05T02:54:12.939Z,12.98
2022-10-05T02:55:12.944Z,12.90
2022-10-05T02:56:12.908Z,12.96
2022-10-05T02:57:12.921Z,12.99
2022-10-05T02:58:12.909Z,12.95
2022-10-05T02:59:12.905Z,12.95
2022-10-05T03:00:12.871Z,12.91
2022-10-05T03:01:12.910Z,12.90
2022-10-05T03:02:12.897Z,12.93
2022-10-05T03:03:12.838Z,12.86
2022-10-05T03:04:12.847Z,12.80
2022-10-05T03:05:12.835Z,12.90
2022-10-05T03:06:12.800Z,12.87
2022-10-05T03:07:12.794Z,12.86
2022-10-05T03:08:12.796Z,12.81
2022-10-05T03:09:12.795Z,12.80
2022-10-05T03:10:12.759Z,12.77
2022-10-05T03:11:12.778Z,12.77
2022-10-05T03:12:12.738Z,12.79
2022-10-05T03:13:12.723Z,12.79
2022-10-05T03:14:12.716Z,12.77
2022-10-05T03:15:12.706Z,12.80
2022-10-05T03:16:12.748Z,12.80
2022-10-05T03:17:12.685Z,12.80
2022-10-05T03:18:12.672Z,12.81
2022-10-05T03:19:12.664Z,12.72
2022-10-05T03:20:12.651Z,12.69
2022-10-05T03:21:12.662Z,12.80
2022-10-05T03:22:12.632Z,12.72
2022-10-05T03:23:12.617Z,12.72
2022-10-05T03:24:12.649Z,12.76
2022-10-05T03:25:12.595Z,12.69
2022-10-05T03:26:12.606Z,12.68
2022-10-05T03:27:12.582Z,12.71
2022-10-05T03:28:12.604Z,12.77
2022-10-05T03:29:12.579Z,12.66
2022-10-05T03:30:12.539Z,12.73
2022-10-05T03:31:12.605Z,12.68
2022-10-05T03:32:12.520Z,12.77
2022-10-05T03:33:12.540Z,12.69
2022-10-05T03:34:12.513Z,12.66
2022-10-05T03:35:12.484Z,12.68
2022-10-05T03:36:12.479Z,12.69
2022-10-05T03:37:12.466Z,12.77
2022-10-05T03:38:12.454Z,12.66
2022-10-05T03:39:12.465Z,12.66
2022-10-05T03:40:12.448Z,12.63
2022-10-05T03:41:12.417Z,12.73
2022-10-05T03:42:12.413Z,12.69
2022-10-05T03:43:12.400Z,12.77
2022-10-05T03:44:12.415Z,12.61
2022-10-05T03:45:12.384Z,12.68
2022-10-05T03:46:12.449Z,12.61
2022-10-05T03:47:12.383Z,12.73
2022-10-05T03:48:12.348Z,12.66
2022-10-05T03:49:12.336Z,12.71
2022-10-05T03:50:12.319Z,12.65
2022-10-05T03:51:12.337Z,12.66
2022-10-05T03:52:12.306Z,12.76
2022-10-05T03:53:12.285Z,12.71
2022-10-05T03:54:12.279Z,12.68
2022-10-05T03:55:12.268Z,12.71
2022-10-05T03:56:12.352Z,12.72
2022-10-05T03:57:12.244Z,12.68
2022-10-05T03:58:12.268Z,12.66
2022-10-05T03:59:12.224Z,12.65
2022-10-05T04:00:12.209Z,12.68
2022-10-05T04:01:12.313Z,12.66
2022-10-05T04:02:12.236Z,12.71
2022-10-05T04:03:12.181Z,12.69
2022-10-05T04:04:12.170Z,12.66
2022-10-05T04:05:12.159Z,12.63
2022-10-05T04:06:12.164Z,12.76
2022-10-05T04:07:12.135Z,12.73
2022-10-05T04:08:12.125Z,12.65
2022-10-05T04:09:12.115Z,12.69
2022-10-05T04:10:12.100Z,12.66
2022-10-05T04:11:12.131Z,12.68
2022-10-05T04:12:12.097Z,12.76
2022-10-05T04:13:12.077Z,12.69
2022-10-05T04:14:12.057Z,12.63
2022-10-05T04:15:16.440Z,12.63
2022-10-05T04:16:13.081Z,12.63
2022-10-05T04:17:12.050Z,12.62
2022-10-05T04:18:12.014Z,12.72
2022-10-05T04:19:12.003Z,12.69
2022-10-05T04:20:11.993Z,12.73
2022-10-05T04:21:11.988Z,12.63
2022-10-05T04:22:12.003Z,12.65
2022-10-05T04:23:11.960Z,12.69
2022-10-05T04:24:11.945Z,12.71
2022-10-05T04:25:11.940Z,12.73
2022-10-05T04:26:11.929Z,12.62
2022-10-05T04:27:11.942Z,12.68
2022-10-05T04:28:11.962Z,12.66
2022-10-05T04:29:11.893Z,12.66
2022-10-05T04:30:11.883Z,12.66
2022-10-05T04:31:11.907Z,12.72
2022-10-05T04:32:11.864Z,12.77
2022-10-05T04:33:11.869Z,12.66
2022-10-05T04:34:11.837Z,12.66
2022-10-05T04:35:11.830Z,12.68
2022-10-05T04:36:11.814Z,12.63
2022-10-05T04:37:11.802Z,12.77
2022-10-05T04:38:11.822Z,12.63
2022-10-05T04:39:11.807Z,12.69
2022-10-05T04:40:11.768Z,12.69
2022-10-05T04:41:11.767Z,12.71
2022-10-05T04:42:11.748Z,12.73
2022-10-05T04:43:11.763Z,12.65
2022-10-05T04:44:11.746Z,12.63
2022-10-05T04:45:11.714Z,12.69
2022-10-05T04:46:11.741Z,12.65
2022-10-05T04:47:11.803Z,12.65
2022-10-05T04:48:11.706Z,12.72
2022-10-05T04:49:11.697Z,12.72
2022-10-05T04:50:11.667Z,12.65
2022-10-05T04:51:11.654Z,12.61
2022-10-05T04:52:11.640Z,12.69
2022-10-05T04:53:11.656Z,12.71
2022-10-05T04:54:11.626Z,12.69
2022-10-05T04:55:11.609Z,12.65
2022-10-05T04:56:11.596Z,12.73
2022-10-05T04:57:11.585Z,12.73
2022-10-05T04:58:11.583Z,12.71
2022-10-05T04:59:11.583Z,12.73
2022-10-05T05:00:11.572Z,12.62
2022-10-05T05:01:11.592Z,12.65
2022-10-05T05:02:11.555Z,12.66
2022-10-05T05:03:11.517Z,12.62
2022-10-05T05:04:11.599Z,12.63
2022-10-05T05:05:11.497Z,12.61
2022-10-05T05:06:17.485Z,12.61
2022-10-05T05:07:12.476Z,12.65
2022-10-05T05:08:11.466Z,12.61
2022-10-05T05:09:11.481Z,12.59
2022-10-05T05:10:11.449Z,12.59
2022-10-05T05:11:15.898Z,12.61
2022-10-05T05:12:12.441Z,12.59
2022-10-05T05:13:11.418Z,12.62
2022-10-05T05:14:11.400Z,12.65
2022-10-05T05:15:11.389Z,12.63
2022-10-05T05:16:11.458Z,12.58
2022-10-05T05:17:13.257Z,12.65
2022-10-05T05:18:11.386Z,12.58
2022-10-05T05:19:11.349Z,12.62
2022-10-05T05:20:11.337Z,12.65
2022-10-05T05:21:11.326Z,12.63
2022-10-05T05:22:11.317Z,12.69
2022-10-05T05:23:11.340Z,12.68
2022-10-05T05:24:11.289Z,12.65
2022-10-05T05:25:11.282Z,12.65
2022-10-05T05:26:11.338Z,12.63
2022-10-05T05:27:11.308Z,12.54
2022-10-05T05:28:11.336Z,12.69
2022-10-05T05:29:11.238Z,12.58
2022-10-05T05:30:11.224Z,12.54
2022-10-05T05:31:11.285Z,12.66
2022-10-05T05:32:11.252Z,12.69
2022-10-05T05:33:11.191Z,12.63
2022-10-05T05:34:11.182Z,12.59
2022-10-05T05:35:11.166Z,12.61
2022-10-05T05:36:11.165Z,12.63
2022-10-05T05:37:11.147Z,12.63
2022-10-05T05:38:11.155Z,12.61
2022-10-05T05:39:11.126Z,12.59
2022-10-05T05:40:11.115Z,12.61
2022-10-05T05:41:11.102Z,12.59
2022-10-05T05:42:11.095Z,12.62
2022-10-05T05:43:11.104Z,12.63
2022-10-05T05:44:11.076Z,12.62
2022-10-05T05:45:11.059Z,12.62
2022-10-05T05:46:11.103Z,12.66
2022-10-05T05:47:11.448Z,12.66
2022-10-05T05:48:11.237Z,12.58
2022-10-05T05:49:11.018Z,12.58
2022-10-05T05:50:11.002Z,12.58
2022-10-05T05:51:11.000Z,12.58
2022-10-05T05:52:10.984Z,12.61
2022-10-05T05:53:10.995Z,12.61
2022-10-05T05:54:10.961Z,12.63
2022-10-05T05:55:10.955Z,12.55
2022-10-05T05:56:10.942Z,12.66
2022-10-05T05:57:11.041Z,12.61
2022-10-05T05:58:10.920Z,12.58
2022-10-05T05:59:10.907Z,12.61
2022-10-05T06:00:10.904Z,12.55
2022-10-05T06:01:30.588Z,12.55
2022-10-05T06:02:12.023Z,12.61
2022-10-05T06:03:11.001Z,12.59
2022-10-05T06:04:10.866Z,12.58
2022-10-05T06:05:10.878Z,12.59
2022-10-05T06:06:10.841Z,12.63
2022-10-05T06:07:10.820Z,12.62
2022-10-05T06:08:10.813Z,12.66
2022-10-05T06:09:10.805Z,12.62
2022-10-05T06:10:10.783Z,12.63
2022-10-05T06:11:10.802Z,12.55
2022-10-05T06:12:10.764Z,12.58
2022-10-05T06:13:10.754Z,12.59
2022-10-05T06:14:10.743Z,12.62
2022-10-05T06:15:10.738Z,12.54
2022-10-05T06:16:10.805Z,12.68
2022-10-05T06:17:10.708Z,12.65
2022-10-05T06:18:10.700Z,12.69
2022-10-05T06:19:10.691Z,12.66
2022-10-05T06:20:10.691Z,12.62
2022-10-05T06:21:10.691Z,12.55
2022-10-05T06:22:10.651Z,12.61
2022-10-05T06:23:10.649Z,12.61
2022-10-05T06:24:10.632Z,12.58
2022-10-05T06:25:10.626Z,12.62
2022-10-05T06:26:11.043Z,12.71
2022-10-05T06:27:10.603Z,12.59
2022-10-05T06:28:10.685Z,12.68
2022-10-05T06:29:10.583Z,12.63
2022-10-05T06:30:10.565Z,12.72
2022-10-05T06:31:10.601Z,12.72
2022-10-05T06:32:10.593Z,12.69
2022-10-05T06:33:10.535Z,12.65
2022-10-05T06:34:10.538Z,12.65
2022-10-05T06:35:10.511Z,12.65
2022-10-05T06:36:10.517Z,12.76
2022-10-05T06:37:10.517Z,12.72
2022-10-05T06:38:10.478Z,12.66
2022-10-05T06:39:10.493Z,12.69
2022-10-05T06:40:10.457Z,12.72
2022-10-05T06:41:10.448Z,12.69
2022-10-05T06:42:10.441Z,12.83
2022-10-05T06:43:10.424Z,12.71
2022-10-05T06:44:10.433Z,12.86
2022-10-05T06:45:10.405Z,12.79
2022-10-05T06:46:10.473Z,12.83
2022-10-05T06:47:10.387Z,12.86
2022-10-05T06:48:10.370Z,12.77
2022-10-05T06:49:10.381Z,12.77
2022-10-05T06:50:10.349Z,12.80
2022-10-05T06:51:10.343Z,12.76
2022-10-05T06:52:10.351Z,12.77
2022-10-05T06:53:10.313Z,12.76
2022-10-05T06:54:10.327Z,12.80
2022-10-05T06:55:14.086Z,12.83
2022-10-05T06:56:10.309Z,12.88
2022-10-05T06:57:10.272Z,12.88
2022-10-05T06:58:10.278Z,12.90
2022-10-05T06:59:10.249Z,12.81
2022-10-05T07:00:10.235Z,12.91
2022-10-05T07:01:10.290Z,12.91
2022-10-05T07:02:10.248Z,12.98
2022-10-05T07:03:10.206Z,12.95
2022-10-05T07:04:10.203Z,12.96
2022-10-05T07:05:10.183Z,12.98
2022-10-05T07:06:10.194Z,12.93
2022-10-05T07:07:10.160Z,12.91
2022-10-05T07:08:10.298Z,13.02
2022-10-05T07:09:10.133Z,12.90
2022-10-05T07:10:10.127Z,12.93
2022-10-05T07:11:10.142Z,12.90
2022-10-05T07:12:10.134Z,13.04
2022-10-05T07:13:10.100Z,13.06
2022-10-05T07:14:10.087Z,13.02
2022-10-05T07:15:10.079Z,12.95
2022-10-05T07:16:10.130Z,13.06
2022-10-05T07:17:10.080Z,13.09
2022-10-05T07:18:10.044Z,13.02
2022-10-05T07:19:10.035Z,13.05
2022-10-05T07:20:10.041Z,13.02
2022-10-05T07:21:10.040Z,13.02
2022-10-05T07:22:10.086Z,13.05
2022-10-05T07:23:10.028Z,12.99
2022-10-05T07:24:10.115Z,13.09
2022-10-05T07:25:09.963Z,13.05
2022-10-05T07:26:09.964Z,13.20
2022-10-05T07:27:09.997Z,13.11
2022-10-05T07:28:09.983Z,13.08
2022-10-05T07:29:09.919Z,13.14
2022-10-05T07:30:09.914Z,13.23
2022-10-05T07:31:10.011Z,13.08
2022-10-05T07:32:09.888Z,13.23
2022-10-05T07:33:09.894Z,13.30
2022-10-05T07:34:09.865Z,13.21
2022-10-05T07:35:09.854Z,13.20
2022-10-05T07:36:09.863Z,13.17
2022-10-05T07:37:09.838Z,13.17
2022-10-05T07:38:09.843Z,13.17
2022-10-05T07:39:09.820Z,13.32
2022-10-05T07:40:09.849Z,13.23
2022-10-05T07:41:09.790Z,13.35
2022-10-05T07:42:09.782Z,13.26
2022-10-05T07:43:09.766Z,13.39
2022-10-05T07:44:12.725Z,13.30
2022-10-05T07:45:09.748Z,13.36
2022-10-05T07:46:09.856Z,13.36
2022-10-05T07:47:09.728Z,13.40
2022-10-05T07:48:09.719Z,13.43
2022-10-05T07:49:09.708Z,13.42
2022-10-05T07:50:09.694Z,13.43
2022-10-05T07:51:09.700Z,13.43
2022-10-05T07:52:09.676Z,13.49
2022-10-05T07:53:09.656Z,13.55
2022-10-05T07:54:09.676Z,13.53
2022-10-05T07:55:09.644Z,13.58
2022-10-05T07:56:09.673Z,13.57
2022-10-05T07:57:09.616Z,13.63
2022-10-05T07:58:09.606Z,13.65
2022-10-05T07:59:09.601Z,13.65
2022-10-05T08:00:09.590Z,13.73
2022-10-05T08:01:09.601Z,13.68
2022-10-05T08:02:09.743Z,13.64
2022-10-05T08:03:09.713Z,13.72
2022-10-05T08:04:09.550Z,13.68
2022-10-05T08:05:09.551Z,13.73
2022-10-05T08:06:09.526Z,13.75
2022-10-05T08:07:09.671Z,13.79
2022-10-05T08:08:09.500Z,13.79
2022-10-05T08:09:09.490Z,13.80
2022-10-05T08:10:09.500Z,13.86
2022-10-05T08:11:09.467Z,13.85
2022-10-05T08:12:09.493Z,13.82
2022-10-05T08:13:09.438Z,13.91
2022-10-05T08:14:09.436Z,13.80
2022-10-05T08:15:09.417Z,13.85
2022-10-05T08:16:09.511Z,13.98
2022-10-05T08:17:09.432Z,14.00
2022-10-05T08:18:09.396Z,14.01
2022-10-05T08:19:09.386Z,13.96
2022-10-05T08:20:09.374Z,14.04
2022-10-05T08:21:09.359Z,14.05
2022-10-05T08:22:09.342Z,14.01
2022-10-05T08:23:09.369Z,14.11
2022-10-05T08:24:09.348Z,14.09
2022-10-05T08:25:09.314Z,14.22
2022-10-05T08:26:09.305Z,14.13
2022-10-05T08:27:09.297Z,14.16
2022-10-05T08:28:09.400Z,14.19
2022-10-05T08:29:13.672Z,14.19
2022-10-05T08:30:09.257Z,14.23
2022-10-05T08:31:09.299Z,14.23
2022-10-05T08:32:09.236Z,14.27
2022-10-05T08:33:09.228Z,14.36
2022-10-05T08:34:09.220Z,14.30
2022-10-05T08:35:09.227Z,14.30
2022-10-05T08:36:09.200Z,14.40
2022-10-05T08:37:09.182Z,14.37
2022-10-05T08:38:09.192Z,14.40
2022-10-05T08:39:09.153Z,14.45
2022-10-05T08:40:09.147Z,14.45
2022-10-05T08:41:09.194Z,14.49
2022-10-05T08:42:09.124Z,14.52
2022-10-05T08:43:09.144Z,14.48
2022-10-05T08:44:09.122Z,14.51
2022-10-05T08:45:09.096Z,14.63
2022-10-05T08:46:09.136Z,14.58
2022-10-05T08:47:09.070Z,14.58
2022-10-05T08:48:09.093Z,14.55
2022-10-05T08:49:09.045Z,14.67
2022-10-05T08:50:09.046Z,14.58
2022-10-05T08:51:09.052Z,14.64
2022-10-05T08:52:09.020Z,14.61
2022-10-05T08:53:09.042Z,14.70
2022-10-05T08:54:09.006Z,14.73
2022-10-05T08:55:08.987Z,14.82
2022-10-05T08:56:08.977Z,14.83
2022-10-05T08:57:08.966Z,14.86
2022-10-05T08:58:08.962Z,14.79
2022-10-05T08:59:08.961Z,14.92
2022-10-05T09:00:08.985Z,14.83
2022-10-05T09:01:08.970Z,14.90
2022-10-05T09:02:09.036Z,15.03
2022-10-05T09:03:08.898Z,14.96
2022-10-05T09:04:08.888Z,15.03
2022-10-05T09:05:08.907Z,14.99
2022-10-05T09:06:08.870Z,15.12
2022-10-05T09:07:08.856Z,15.08
2022-10-05T09:08:08.842Z,15.07
2022-10-05T09:09:08.836Z,15.14
2022-10-05T09:10:08.843Z,15.17
2022-10-05T09:11:08.813Z,15.11
2022-10-05T09:12:08.801Z,15.17
2022-10-05T09:13:08.820Z,15.25
2022-10-05T09:14:08.806Z,15.26
2022-10-05T09:15:24.715Z,15.22
2022-10-05T09:16:09.871Z,15.26
2022-10-05T09:17:08.778Z,15.33
2022-10-05T09:18:08.751Z,15.32
2022-10-05T09:19:08.729Z,15.41
2022-10-05T09:20:08.734Z,15.38
2022-10-05T09:21:08.703Z,15.44
2022-10-05T09:22:08.723Z,15.41
2022-10-05T09:23:08.689Z,15.47
2022-10-05T09:24:08.700Z,15.47
2022-10-05T09:25:08.672Z,15.38
2022-10-05T09:26:08.661Z,15.51
2022-10-05T09:27:08.659Z,15.51
2022-10-05T09:28:08.771Z,15.52
2022-10-05T09:29:08.652Z,15.59
2022-10-05T09:30:08.620Z,15.59
2022-10-05T09:31:08.730Z,15.56
2022-10-05T09:32:10.757Z,15.62
2022-10-05T09:33:09.574Z,15.68
2022-10-05T09:34:08.573Z,15.66
2022-10-05T09:35:08.588Z,15.70
2022-10-05T09:36:08.557Z,15.68
2022-10-05T09:37:08.533Z,15.78
2022-10-05T09:38:08.522Z,15.77
2022-10-05T09:39:08.519Z,15.81
2022-10-05T09:40:08.508Z,15.81
2022-10-05T09:41:08.514Z,15.85
2022-10-05T09:42:08.481Z,15.87
2022-10-05T09:43:08.473Z,15.83
2022-10-05T09:44:08.462Z,15.85
2022-10-05T09:45:08.450Z,15.95
2022-10-05T09:46:08.648Z,15.93
2022-10-05T09:47:08.429Z,15.96
2022-10-05T09:48:08.444Z,16.03
2022-10-05T09:49:08.413Z,15.96
2022-10-05T09:50:08.420Z,16.06
2022-10-05T09:51:08.382Z,16.02
2022-10-05T09:52:08.371Z,16.03
2022-10-05T09:53:08.361Z,16.09
2022-10-05T09:54:08.351Z,16.17
2022-10-05T09:55:08.369Z,16.18
2022-10-05T09:56:08.354Z,16.17
2022-10-05T09:57:08.319Z,16.29
2022-10-05T09:58:08.313Z,16.26
2022-10-05T09:59:08.299Z,16.33
2022-10-05T10:00:08.353Z,16.33
2022-10-05T10:01:16.040Z,16.32
2022-10-05T10:02:09.337Z,16.28
2022-10-05T10:03:08.369Z,16.37
2022-10-05T10:04:08.359Z,16.43
2022-10-05T10:05:08.232Z,16.46
2022-10-05T10:06:08.260Z,16.47
2022-10-05T10:07:08.218Z,16.43
2022-10-05T10:08:08.203Z,16.46
2022-10-05T10:09:08.190Z,16.46
2022-10-05T10:10:08.184Z,16.54
2022-10-05T10:11:08.187Z,16.58
2022-10-05T10:12:08.155Z,16.55
2022-10-05T10:13:08.146Z,16.65
2022-10-05T10:14:08.133Z,16.69
2022-10-05T10:15:08.119Z,16.62
2022-10-05T10:16:08.251Z,16.62
2022-10-05T10:17:08.099Z,16.64
2022-10-05T10:18:08.091Z,16.59
2022-10-05T10:19:08.072Z,16.65
2022-10-05T10:20:08.099Z,16.62
2022-10-05T10:21:08.076Z,16.70
2022-10-05T10:22:08.041Z,16.74
2022-10-05T10:23:08.032Z,16.69
2022-10-05T10:24:08.025Z,16.70
2022-10-05T10:25:08.015Z,16.72
2022-10-05T10:26:08.017Z,16.80
2022-10-05T10:27:07.988Z,16.76
2022-10-05T10:28:08.077Z,16.79
2022-10-05T10:29:07.985Z,16.87
2022-10-05T10:30:08.067Z,16.90
2022-10-05T10:31:08.014Z,16.90
2022-10-05T10:32:07.934Z,16.88
2022-10-05T10:33:07.929Z,16.91
2022-10-05T10:34:07.916Z,16.92
2022-10-05T10:35:07.898Z,17.10
2022-10-05T10:36:07.932Z,17.02
2022-10-05T10:37:07.884Z,17.07
2022-10-05T10:38:07.872Z,17.01
2022-10-05T10:39:07.857Z,17.14
2022-10-05T10:40:07.964Z,17.20
2022-10-05T10:41:07.851Z,17.10
2022-10-05T10:42:07.841Z,17.20
2022-10-05T10:43:07.828Z,17.28
2022-10-05T10:44:07.801Z,17.32
2022-10-05T10:45:07.790Z,17.28
2022-10-05T10:46:07.816Z,17.32
2022-10-05T10:47:07.769Z,17.37
2022-10-05T10:48:07.783Z,17.37
2022-10-05T10:49:07.744Z,17.39
2022-10-05T10:50:07.744Z,17.39
2022-10-05T10:51:07.733Z,17.43
2022-10-05T10:52:07.740Z,17.47
2022-10-05T10:53:07.725Z,17.46
2022-10-05T10:54:07.697Z,17.50
2022-10-05T10:55:07.687Z,17.47
2022-10-05T10:56:07.692Z,17.52
2022-10-05T10:57:07.663Z,17.63
2022-10-05T10:58:11.189Z,17.69
2022-10-05T10:59:08.665Z,17.57
2022-10-05T11:00:07.637Z,17.71
2022-10-05T11:01:07.617Z,17.78
2022-10-05T11:02:07.688Z,17.84
2022-10-05T11:03:07.628Z,17.86
2022-10-05T11:04:07.612Z,17.83
2022-10-05T11:05:07.578Z,17.76
2022-10-05T11:06:07.576Z,17.86
2022-10-05T11:07:07.582Z,17.88
2022-10-05T11:08:07.564Z,17.96
2022-10-05T11:09:07.551Z,17.97
2022-10-05T11:10:07.564Z,18.06
2022-10-05T11:11:07.508Z,18.02
2022-10-05T11:12:07.612Z,18.11
2022-10-05T11:13:07.489Z,18.11
2022-10-05T11:14:07.477Z,18.23
2022-10-05T11:15:07.470Z,18.18
2022-10-05T11:17:07.449Z,18.33
2022-10-05T11:18:07.434Z,18.30
2022-10-05T11:19:07.421Z,18.27
2022-10-05T11:20:07.525Z,18.33
2022-10-05T11:21:07.426Z,18.46
2022-10-05T11:22:07.389Z,18.48
2022-10-05T11:23:07.380Z,18.45
2022-10-05T11:24:07.397Z,18.60
2022-10-05T11:25:07.357Z,18.67
2022-10-05T11:26:07.376Z,18.66
2022-10-05T11:27:07.345Z,18.74
2022-10-05T11:28:07.405Z,18.78
2022-10-05T11:29:07.310Z,18.83
2022-10-05T11:30:07.326Z,18.85
2022-10-05T11:31:07.369Z,18.91
2022-10-05T11:32:07.288Z,18.96
2022-10-05T11:33:07.278Z,19.08
2022-10-05T11:34:07.261Z,19.07
2022-10-05T11:35:07.278Z,19.15
2022-10-05T11:36:07.237Z,19.22
2022-10-05T11:37:07.236Z,19.30
2022-10-05T11:38:07.215Z,19.27
2022-10-05T11:39:07.207Z,19.42
2022-10-05T11:40:07.267Z,19.44
2022-10-05T11:41:07.185Z,19.54
2022-10-05T11:42:07.175Z,19.54
2022-10-05T11:43:07.166Z,19.67
2022-10-05T11:44:07.358Z,19.68
2022-10-05T11:45:07.180Z,19.77
2022-10-05T11:46:07.165Z,19.77
2022-10-05T11:47:07.129Z,19.84
2022-10-05T11:48:07.136Z,19.87
2022-10-05T11:49:07.094Z,19.94
2022-10-05T11:50:07.089Z,20.05
2022-10-05T11:51:07.077Z,20.08
2022-10-05T11:52:07.066Z,20.07
2022-10-05T11:53:07.123Z,20.22
2022-10-05T11:54:07.067Z,20.26
2022-10-05T11:55:11.628Z,20.29
2022-10-05T11:56:08.048Z,20.30
2022-10-05T11:57:07.012Z,20.39
2022-10-05T11:58:06.997Z,20.36
2022-10-05T11:59:07.030Z,20.39
2022-10-05T12:00:06.981Z,20.33
2022-10-05T12:01:06.988Z,20.39
2022-10-05T12:02:06.955Z,20.55
2022-10-05T12:03:07.105Z,20.55
2022-10-05T12:04:07.037Z,20.58
2022-10-05T12:05:06.944Z,20.67
2022-10-05T12:06:06.912Z,20.70
2022-10-05T12:07:06.914Z,20.79
2022-10-05T12:08:06.896Z,20.82
2022-10-05T12:09:06.879Z,20.82
2022-10-05T12:10:06.908Z,20.86
2022-10-05T12:11:06.863Z,20.82
2022-10-05T12:12:06.864Z,20.86
2022-10-05T12:13:06.846Z,20.92
2022-10-05T12:14:06.826Z,21.00
2022-10-05T12:15:06.820Z,21.05
2022-10-05T12:16:06.850Z,21.07
2022-10-05T12:17:06.798Z,21.08
2022-10-05T12:18:06.786Z,21.05
2022-10-05T12:19:06.782Z,21.18
2022-10-05T12:20:06.760Z,21.22
2022-10-05T12:21:06.774Z,21.23
2022-10-05T12:22:06.746Z,21.30
2022-10-05T12:23:06.731Z,21.30
2022-10-05T12:24:06.749Z,21.40
2022-10-05T12:25:06.714Z,21.35
2022-10-05T12:26:06.737Z,21.45
2022-10-05T12:27:06.686Z,21.40
2022-10-05T12:28:06.717Z,21.51
2022-10-05T12:29:06.671Z,21.58
2022-10-05T12:30:06.655Z,21.58
2022-10-05T12:31:06.735Z,21.56
2022-10-05T12:32:06.632Z,21.73
2022-10-05T12:33:06.630Z,21.73
2022-10-05T12:34:06.635Z,21.75
2022-10-05T12:35:06.599Z,21.73
2022-10-05T12:36:06.591Z,21.78
2022-10-05T12:37:06.589Z,21.84
2022-10-05T12:38:06.566Z,21.84
2022-10-05T12:39:06.579Z,21.90
2022-10-05T12:40:06.571Z,21.96
2022-10-05T12:41:06.533Z,22.11
2022-10-05T12:42:06.523Z,22.00
2022-10-05T12:43:06.521Z,22.13
2022-10-05T12:44:06.650Z,22.21
2022-10-05T12:45:06.493Z,22.21
2022-10-05T12:46:06.531Z,22.23
2022-10-05T12:47:06.477Z,22.33
2022-10-05T12:48:06.471Z,22.37
2022-10-05T12:49:06.484Z,22.44
2022-10-05T12:50:06.433Z,22.44
2022-10-05T12:51:06.453Z,22.56
2022-10-05T12:52:06.424Z,22.64
2022-10-05T12:53:06.406Z,22.59